createdAt,value
2018-11-28T00:04:24.771Z,89.80
2018-11-28T00:09:44.346Z,90.00
2018-11-28T00:14:48.951Z,90.40
2018-11-28T00:19:53.608Z,89.80
2018-11-28T00:24:58.299Z,90.00
2018-11-28T00:30:02.983Z,90.10
2018-11-28T00:35:08.962Z,89.70
2018-11-28T00:40:14.566Z,89.70
2018-11-28T00:45:21.026Z,90.10
2018-11-28T00:50:26.777Z,90.10
2018-11-28T00:55:31.443Z,90.30
2018-11-28T01:00:36.145Z,90.30
2018-11-28T01:05:40.837Z,90.20
2018-11-28T01:10:45.516Z,90.10
2018-11-28T01:15:50.175Z,90.10
2018-11-28T01:20:54.873Z,90.20
2018-11-28T01:25:59.534Z,90.00
2018-11-28T01:31:04.262Z,90.30
2018-11-28T01:36:09.042Z,90.50
2018-11-28T01:41:13.745Z,90.10
2018-11-28T01:46:18.475Z,90.20
2018-11-28T01:51:23.150Z,90.10
2018-11-28T01:56:27.811Z,90.00
2018-11-28T02:01:32.499Z,90.40
2018-11-28T02:06:37.259Z,90.00
2018-11-28T02:11:41.944Z,90.20
2018-11-28T02:16:46.635Z,90.20
2018-11-28T02:21:51.380Z,90.30
2018-11-28T02:26:56.027Z,90.20
2018-11-28T02:32:01.782Z,90.20
2018-11-28T02:37:07.166Z,90.20
2018-11-28T02:42:12.805Z,90.10
2018-11-28T02:47:17.997Z,90.10
2018-11-28T02:52:24.032Z,90.50
2018-11-28T02:57:29.145Z,90.60
2018-11-28T03:02:34.111Z,90.10
2018-11-28T03:07:39.060Z,89.80
2018-11-28T03:12:44.701Z,89.60
2018-11-28T03:17:50.536Z,90.00
2018-11-28T03:22:55.543Z,90.00
2018-11-28T03:28:00.427Z,90.10
2018-11-28T03:33:05.853Z,89.50
2018-11-28T03:38:10.789Z,90.10
2018-11-28T03:43:23.621Z,89.60
2018-11-28T03:48:33.071Z,89.60
2018-11-28T03:53:39.022Z,89.50
2018-11-28T03:58:43.973Z,89.50
2018-11-28T04:03:52.173Z,89.50
2018-11-28T04:08:57.924Z,88.70
2018-11-28T04:14:05.317Z,88.70
2018-11-28T04:19:12.144Z,88.80
2018-11-28T04:24:18.865Z,89.30
2018-11-28T04:29:24.254Z,89.90
2018-11-28T04:34:30.591Z,88.90
2018-11-28T04:39:35.200Z,89.20
2018-11-28T04:44:40.131Z,89.30
2018-11-28T04:49:45.803Z,89.50
2018-11-28T05:00:41.528Z,89.30
2018-11-28T05:11:04.341Z,89.20
2018-11-28T05:16:08.978Z,88.80
2018-11-28T05:21:13.733Z,89.20
2018-11-28T05:26:19.229Z,89.30
2018-11-28T05:31:23.844Z,89.90
2018-11-28T05:36:28.487Z,89.70
2018-11-28T05:41:33.090Z,89.80
2018-11-28T05:46:37.637Z,89.80
2018-11-28T05:51:43.590Z,89.80
2018-11-28T05:56:49.617Z,89.90
2018-11-28T06:01:54.185Z,90.00
2018-11-28T06:06:58.766Z,89.60
2018-11-28T06:12:03.347Z,89.90
2018-11-28T06:17:07.855Z,90.00
2018-11-28T06:22:12.359Z,89.60
2018-11-28T06:27:16.856Z,89.80
2018-11-28T06:32:21.378Z,89.90
2018-11-28T06:37:26.041Z,90.00
2018-11-28T06:42:30.559Z,89.60
2018-11-28T06:47:35.203Z,89.20
2018-11-28T06:52:39.696Z,89.60
2018-11-28T06:57:44.446Z,89.60
2018-11-28T07:02:49.899Z,89.50
2018-11-28T07:07:54.439Z,89.50
2018-11-28T07:12:58.983Z,89.40
2018-11-28T07:18:14.403Z,89.60
2018-11-28T07:23:18.893Z,89.30
2018-11-28T07:28:23.499Z,89.00
2018-11-28T07:33:27.996Z,88.90
2018-11-28T07:38:32.512Z,89.30
2018-11-28T07:43:37.147Z,89.60
2018-11-28T07:48:41.670Z,89.40
2018-11-28T07:53:46.171Z,89.70
2018-11-28T07:58:50.703Z,90.00
2018-11-28T08:03:55.224Z,90.00
2018-11-28T08:08:59.723Z,89.70
2018-11-28T08:14:04.214Z,89.90
2018-11-28T08:19:08.752Z,89.10
2018-11-28T08:24:13.298Z,88.70
2018-11-28T08:29:17.871Z,88.70
2018-11-28T08:34:23.590Z,89.20
2018-11-28T08:39:27.018Z,89.40
2018-11-28T08:44:31.567Z,90.10
2018-11-28T08:49:36.130Z,90.20
2018-11-28T08:54:40.635Z,90.40
2018-11-28T08:59:45.212Z,90.40
2018-11-28T09:04:49.743Z,90.40
2018-11-28T09:09:54.251Z,90.20
2018-11-28T09:14:58.798Z,90.50
2018-11-28T09:20:03.342Z,90.70
2018-11-28T09:25:12.244Z,90.70
2018-11-28T09:30:18.503Z,90.50
2018-11-28T09:35:23.049Z,90.60
2018-11-28T09:40:27.925Z,90.60
2018-11-28T09:45:32.424Z,90.40
2018-11-28T09:50:36.995Z,90.70
2018-11-28T09:55:41.524Z,90.70
2018-11-28T10:00:46.032Z,90.90
2018-11-28T10:05:50.593Z,90.80
2018-11-28T10:10:55.088Z,90.60
2018-11-28T10:16:00.214Z,90.60
2018-11-28T10:21:04.191Z,90.90
2018-11-28T10:26:08.700Z,90.80
2018-11-28T10:31:13.221Z,90.90
2018-11-28T10:36:17.814Z,90.70
2018-11-28T10:41:22.351Z,90.60
2018-11-28T10:46:27.617Z,90.30
2018-11-28T10:51:31.431Z,90.20
2018-11-28T10:56:35.950Z,90.20
2018-11-28T11:01:45.734Z,90.30
2018-11-28T11:06:55.252Z,90.10
2018-11-28T11:12:04.895Z,90.10
2018-11-28T11:17:09.422Z,90.00
2018-11-28T11:22:13.966Z,90.20
2018-11-28T11:27:18.522Z,90.10
2018-11-28T11:32:23.076Z,90.00
2018-11-28T11:37:27.578Z,89.60
2018-11-28T11:42:32.099Z,89.60
2018-11-28T11:47:36.616Z,88.90
2018-11-28T11:52:41.456Z,87.40
2018-11-28T11:57:46.095Z,86.80
2018-11-28T12:03:02.255Z,86.30
2018-11-28T12:08:07.453Z,85.10
2018-11-28T12:13:12.096Z,83.80
2018-11-28T12:18:16.847Z,81.40
2018-11-28T12:23:21.530Z,81.10
2018-11-28T12:28:26.188Z,80.20
2018-11-28T12:33:30.874Z,79.30
2018-11-28T12:38:35.564Z,78.10
2018-11-28T12:43:40.227Z,77.90
2018-11-28T12:48:44.872Z,79.10
2018-11-28T12:53:49.534Z,81.40
2018-11-28T12:58:54.153Z,80.00
2018-11-28T13:03:58.793Z,81.20
2018-11-28T13:09:03.414Z,76.80
2018-11-28T13:14:07.936Z,79.80
2018-11-28T13:19:12.466Z,78.80
2018-11-28T13:24:16.994Z,80.40
2018-11-28T13:29:21.558Z,79.50
2018-11-28T13:34:26.097Z,78.90
2018-11-28T13:39:30.593Z,81.00
2018-11-28T13:44:35.099Z,80.60
2018-11-28T13:49:39.702Z,82.20
2018-11-28T13:55:37.812Z,82.40
2018-11-28T13:59:48.771Z,83.60
2018-11-28T14:04:53.294Z,84.10
2018-11-28T14:09:57.814Z,84.80
2018-11-28T14:15:02.372Z,81.90
2018-11-28T14:20:08.683Z,83.00
2018-11-28T14:25:14.032Z,83.10
2018-11-28T14:30:19.624Z,84.20
2018-11-28T14:35:24.120Z,83.00
2018-11-28T14:40:28.619Z,84.40
2018-11-28T14:45:33.482Z,83.10
2018-11-28T14:50:38.218Z,85.00
2018-11-28T14:55:42.746Z,85.30
2018-11-28T15:00:47.396Z,85.70
2018-11-28T15:06:29.927Z,86.10
2018-11-28T15:11:34.491Z,86.00
2018-11-28T15:16:39.067Z,86.90
2018-11-28T15:21:43.544Z,87.40
2018-11-28T15:26:48.155Z,87.10
2018-11-28T15:31:53.494Z,87.70
2018-11-28T15:36:58.142Z,88.00
2018-11-28T15:42:02.629Z,87.90
2018-11-28T15:47:07.096Z,88.30
2018-11-28T15:52:11.548Z,88.90
2018-11-28T15:57:16.310Z,88.10
2018-11-28T16:02:20.837Z,88.50
2018-11-28T16:07:25.305Z,88.60
2018-11-28T16:12:29.773Z,88.40
2018-11-28T16:17:34.242Z,88.80
2018-11-28T16:22:38.738Z,89.10
2018-11-28T16:27:43.248Z,89.10
2018-11-28T16:32:49.399Z,89.30
2018-11-28T16:37:53.949Z,89.20
2018-11-28T16:42:58.420Z,88.90
2018-11-28T16:48:02.939Z,89.40
2018-11-28T16:53:07.635Z,89.40
2018-11-28T16:58:12.373Z,89.60
2018-11-28T17:03:16.978Z,89.60
2018-11-28T17:08:21.507Z,89.80
2018-11-28T17:13:30.204Z,90.00
2018-11-28T17:18:34.787Z,90.00
2018-11-28T17:23:39.491Z,89.90
2018-11-28T17:28:43.975Z,90.00
2018-11-28T17:33:54.087Z,89.90
2018-11-28T17:38:58.589Z,90.00
2018-11-28T17:44:03.102Z,90.00
2018-11-28T17:49:12.351Z,90.00
2018-11-28T18:21:25.721Z,90.00
2018-11-28T18:26:30.777Z,90.00
2018-11-28T18:31:35.318Z,89.30
2018-11-28T18:36:39.888Z,89.60
2018-11-28T18:41:45.052Z,90.30
2018-11-28T18:46:53.420Z,90.00
2018-11-28T18:51:58.188Z,90.10
2018-11-28T18:57:07.774Z,89.70
2018-11-28T19:02:12.755Z,89.40
2018-11-28T19:07:18.162Z,90.00
2018-11-28T19:12:23.933Z,89.90
2018-11-28T19:17:31.190Z,89.90
2018-11-28T19:22:36.020Z,89.80
2018-11-28T19:27:41.240Z,90.00
2018-11-28T19:32:51.526Z,89.80
2018-11-28T19:37:59.750Z,89.70
2018-11-28T19:43:06.631Z,90.10
2018-11-28T19:51:44.923Z,90.00
2018-11-28T19:56:56.123Z,90.30
2018-11-28T20:02:03.306Z,90.00
2018-11-28T20:07:12.300Z,90.20
2018-11-28T20:12:19.385Z,90.40
2018-11-28T20:17:25.911Z,90.70
2018-11-28T20:22:35.468Z,90.50
2018-11-28T20:27:41.746Z,90.10
2018-11-28T20:32:55.361Z,90.20
2018-11-28T20:38:00.338Z,90.30
2018-11-28T20:43:08.292Z,90.00
2018-11-28T20:48:13.202Z,90.10
2018-11-28T20:53:19.565Z,90.00
2018-11-28T20:58:25.073Z,90.20
2018-11-28T21:03:30.326Z,90.40
2018-11-28T21:08:35.436Z,90.20
2018-11-28T21:13:41.636Z,90.00
2018-11-28T21:18:49.227Z,90.10
2018-11-28T21:23:54.217Z,90.00
2018-11-28T21:28:59.096Z,90.30
2018-11-28T21:34:04.000Z,90.00
2018-11-28T21:39:10.110Z,90.00
2018-11-28T21:44:14.807Z,90.20
2018-11-28T21:49:19.507Z,90.30
2018-11-28T21:54:24.105Z,90.30
2018-11-28T21:59:28.772Z,90.30
2018-11-28T22:04:33.638Z,90.10
2018-11-28T22:09:39.622Z,90.20
2018-11-28T22:14:44.296Z,90.40
2018-11-28T22:19:49.018Z,90.20
2018-11-28T22:24:53.661Z,89.90
2018-11-28T22:29:58.379Z,90.20
2018-11-28T22:35:03.016Z,90.20
2018-11-28T22:40:11.194Z,90.50
2018-11-28T22:45:22.008Z,90.50
2018-11-28T22:50:26.722Z,90.60
2018-11-28T22:55:31.479Z,91.00
2018-11-28T23:00:41.415Z,91.00
2018-11-28T23:05:52.969Z,91.10
2018-11-28T23:10:57.606Z,91.60
2018-11-28T23:16:02.271Z,91.40
2018-11-28T23:21:07.057Z,91.20
2018-11-28T23:26:11.660Z,91.10
2018-11-28T23:31:16.300Z,90.70
2018-11-28T23:36:20.879Z,91.20
2018-11-28T23:41:25.563Z,91.20
2018-11-28T23:46:30.206Z,90.90
2018-11-28T23:51:34.824Z,90.90
2018-11-28T23:56:39.475Z,91.10
